Time;durP1;ratioP1;P1;durP2;ratioP2;P2;SDS_P1;SDS_P2;PMS_P1;PMS_P2;Temp;Humidity;BMP_temperature;BMP_pressure;BME280_temperature;BME280_humidity;BME280_pressure;Samples;Min_cycle;Max_cycle;Signal;HPM_P1;HPM_P2
2021/07/30 05:56:21;;;;;;;41.63;6.60;;;17.40;50.80;;;;;;6155958;23;20481;-76
2021/07/30 05:58:48;;;;;;;38.80;6.30;;;17.60;46.10;;;;;;6155672;23;20493;-80
2021/07/30 06:01:15;;;;;;;43.33;7.20;;;17.80;44.00;;;;;;6163920;23;20426;-80
2021/07/30 06:16:39;;;;;;;49.33;12.50;;;19.40;31.50;;;;;;6126381;23;20413;-82
2021/07/30 06:19:06;;;;;;;50.70;14.20;;;19.60;33.80;;;;;;6127845;23;20458;-81
2021/07/30 06:21:33;;;;;;;48.40;18.47;;;19.60;29.70;;;;;;6127761;23;20455;-84
2021/07/30 06:24:00;;;;;;;48.60;19.87;;;19.30;29.60;;;;;;6127927;23;20430;-82
2021/07/30 06:26:27;;;;;;;49.17;21.23;;;19.30;30.20;;;;;;6127843;23;20410;-84
2021/07/30 06:28:53;;;;;;;44.00;12.27;;;19.30;30.60;;;;;;6127862;23;20447;-83
2021/07/30 06:31:20;;;;;;;41.10;6.13;;;19.50;28.90;;;;;;6136216;23;20407;-79
2021/07/30 06:33:48;;;;;;;45.80;9.13;;;19.90;29.50;;;;;;6137608;23;20417;-80
2021/07/30 06:36:18;;;;;;;45.40;7.00;;;19.90;27.00;;;;;;6127859;23;20403;-85
2021/07/30 06:39:12;;;;;;;41.73;10.57;;;19.70;25.50;;;;;;6127619;23;20434;-83
2021/07/30 06:41:39;;;;;;;43.53;10.53;;;19.70;25.30;;;;;;6116881;23;20521;-84
2021/07/30 06:44:10;;;;;;;35.40;3.70;;;19.50;25.80;;;;;;6137173;23;20407;-83
2021/07/30 06:46:43;;;;;;;40.53;11.43;;;19.50;25.50;;;;;;6126243;23;20477;-84
2021/07/30 06:49:12;;;;;;;40.90;4.93;;;19.50;28.10;;;;;;6137093;23;20407;-83
2021/07/30 06:51:39;;;;;;;35.73;5.90;;;19.40;25.10;;;;;;6127247;23;20406;-83
2021/07/30 06:54:06;;;;;;;34.50;3.90;;;19.30;26.00;;;;;;6136854;23;20414;-83
2021/07/30 06:56:36;;;;;;;32.00;6.17;;;19.10;26.00;;;;;;6127668;23;20462;-83
2021/07/30 06:59:03;;;;;;;32.97;6.60;;;19.00;26.40;;;;;;6127546;23;20410;-82
2021/07/30 07:01:30;;;;;;;35.00;7.20;;;19.30;27.20;;;;;;6126230;23;20435;-82
2021/07/30 07:03:58;;;;;;;34.77;7.10;;;19.40;25.40;;;;;;6127793;23;20431;-82
2021/07/30 07:06:26;;;;;;;36.03;6.90;;;19.70;25.10;;;;;;6127209;23;20486;-83
2021/07/30 07:08:53;;;;;;;37.73;4.70;;;20.20;23.60;;;;;;6127242;23;20403;-82
2021/07/30 07:11:20;;;;;;;39.30;4.80;;;20.50;22.60;;;;;;6127690;23;20407;-82
2021/07/30 07:13:47;;;;;;;41.27;7.73;;;21.20;20.60;;;;;;6141176;23;20521;-83
2021/07/30 07:16:18;;;;;;;39.60;6.10;;;21.40;18.70;;;;;;6155229;23;20818;-83
2021/07/30 07:18:45;;;;;;;40.80;7.17;;;21.20;18.20;;;;;;6156648;23;20961;-82
2021/07/30 07:21:13;;;;;;;42.43;4.57;;;21.20;20.60;;;;;;6153164;23;20480;-83
2021/07/30 07:23:50;;;;;;;40.07;4.63;;;21.40;19.70;;;;;;6155525;23;20406;-82
2021/07/30 07:26:17;;;;;;;34.80;5.17;;;21.30;19.20;;;;;;6164950;23;20739;-82
2021/07/30 07:28:44;;;;;;;36.67;4.67;;;20.90;17.30;;;;;;6155319;23;20492;-82
2021/07/30 07:31:11;;;;;;;43.73;5.17;;;21.20;17.70;;;;;;6153407;23;20441;-82
2021/07/30 07:33:38;;;;;;;40.23;4.60;;;21.30;18.70;;;;;;6155895;23;20412;-82
2021/07/30 07:36:06;;;;;;;43.87;5.17;;;21.50;17.30;;;;;;6156870;23;20433;-81
2021/07/30 07:39:23;;;;;;;;;;;;;;;;;;;;;
2021/07/30 07:59:11;;;;;;;;;;;;;;;;;;;;;
2021/07/30 08:02:14;;;;;;;27.80;4.53;;;21.30;17.20;;;;;;5947441;23;20412;-85
2021/07/30 09:09:31;;;;;;;44.27;10.07;;;26.00;1.00;;;;;;5987253;23;20414;-86
2021/07/30 09:15:56;;;;;;;43.10;9.87;;;25.40;1.00;;;;;;5898490;24;20525;-87
2021/07/30 09:32:11;;;;;;;;;;;;;;;;;;;;;
2021/07/30 11:24:14;;;;;;;48.63;9.43;;;30.00;1.00;;;;;;6109392;23;20394;-80
2021/07/30 11:26:46;;;;;;;48.90;6.53;;;29.40;1.00;;;;;;6134886;23;20481;-82
2021/07/30 11:29:14;;;;;;;46.73;5.53;;;28.80;1.00;;;;;;6130317;23;20875;-81
2021/07/30 11:32:00;;;;;;;45.73;5.60;;;29.70;1.00;;;;;;6141132;23;20472;-82
2021/07/30 11:34:32;;;;;;;44.10;5.60;;;30.30;1.00;;;;;;6132807;23;20414;-82
2021/07/30 11:37:08;;;;;;;45.93;5.73;;;30.20;1.00;;;;;;6142930;23;20410;-82
2021/07/30 11:39:39;;;;;;;44.97;5.67;;;29.70;1.00;;;;;;6142454;23;20465;-82
2021/07/30 11:42:26;;;;;;;47.47;5.93;;;30.00;1.00;;;;;;6132899;23;20433;-82
2021/07/30 11:44:57;;;;;;;46.20;5.90;;;30.70;1.00;;;;;;6131583;23;20429;-82
2021/07/30 11:47:26;;;;;;;46.80;5.80;;;29.70;1.00;;;;;;6132387;23;20461;-82
2021/07/30 11:50:04;;;;;;;44.73;6.70;;;28.70;1.00;;;;;;6132976;23;20406;-82
2021/07/30 11:52:32;;;;;;;43.70;4.80;;;28.80;1.00;;;;;;6132326;23;20406;-82
2021/07/30 11:55:16;;;;;;;46.30;5.93;;;29.30;1.00;;;;;;6133156;23;20410;-82
2021/07/30 11:57:45;;;;;;;43.37;5.00;;;28.20;1.00;;;;;;6142588;23;20413;-82
2021/07/30 12:00:23;;;;;;;41.83;5.67;;;28.30;1.00;;;;;;6141238;23;20576;-82
2021/07/30 12:02:50;;;;;;;42.03;4.50;;;29.40;1.00;;;;;;6142019;23;20483;-82
2021/07/30 12:05:17;;;;;;;42.23;5.20;;;30.40;1.00;;;;;;6132870;23;20434;-82
2021/07/30 12:08:12;;;;;;;;;;;;;;;;;;;;;
2021/07/30 12:11:09;;;;;;;46.10;5.40;;;30.70;1.00;;;;;;6143781;23;20406;-82
2021/07/30 12:13:38;;;;;;;47.47;7.90;;;30.00;1.00;;;;;;6101806;23;20414;-81
2021/07/30 12:16:05;;;;;;;48.27;14.23;;;30.00;1.00;;;;;;6097204;23;20410;-82
2021/07/30 12:18:33;;;;;;;45.67;10.63;;;29.20;1.00;;;;;;6108153;23;20433;-82
2021/07/30 13:36:07;;;;;;;;;;;;;;;;;;;;;
2021/07/30 13:43:05;;;;;;;;;;;;;;;;;;;;;
2021/07/30 13:52:19;;;;;;;;;;;;;;;;;;;;;
2021/07/30 13:55:19;;;;;;;;;;;;;;;;;;;;;
2021/07/30 13:58:26;;;;;;;41.10;4.57;;;25.40;1.00;;;;;;5848238;24;20942;-84
2021/07/30 14:01:36;;;;;;;41.50;5.27;;;25.40;1.00;;;;;;5985964;24;20761;-84
2021/07/30 14:04:14;;;;;;;38.93;4.00;;;25.20;1.00;;;;;;5947879;24;20540;-84
2021/07/30 14:07:30;;;;;;;;;;;;;;;;;;;;;
2021/07/30 14:16:06;;;;;;;43.40;5.90;;;24.90;1.00;;;;;;5854888;24;20490;-78
2021/07/30 14:25:08;;;;;;;38.50;4.17;;;25.20;1.00;;;;;;5759470;23;20432;-82
2021/07/30 14:27:44;;;;;;;38.60;3.77;;;25.50;1.00;;;;;;6018090;23;20906;-83
2021/07/30 14:30:12;;;;;;;40.23;3.93;;;25.90;1.00;;;;;;6007010;23;20409;-78
2021/07/30 14:33:14;;;;;;;40.90;4.30;;;26.10;1.00;;;;;;6008553;23;20423;-83
2021/07/30 14:35:43;;;;;;;38.23;3.53;;;26.50;1.00;;;;;;5918821;23;20913;-80
2021/07/30 14:38:10;;;;;;;41.57;4.60;;;26.20;1.00;;;;;;6006449;23;20565;-81
2021/07/30 14:40:37;;;;;;;40.40;4.23;;;26.20;1.00;;;;;;6037621;23;20905;-78
2021/07/30 14:46:33;;;;;;;42.40;4.63;;;26.50;1.00;;;;;;6048038;23;20428;-83
2021/07/30 15:02:32;;;;;;;42.10;5.00;;;26.40;1.00;;;;;;5761090;24;20504;-82
2021/07/30 15:20:25;;;;;;;45.37;7.77;;;24.10;11.20;;;;;;5657335;24;20751;-78
2021/07/30 15:22:53;;;;;;;43.10;7.83;;;25.40;4.80;;;;;;5882414;24;20457;-79
2021/07/30 15:25:20;;;;;;;38.80;5.63;;;25.60;4.00;;;;;;6064303;23;20423;-79
2021/07/30 15:27:47;;;;;;;44.47;8.87;;;25.40;2.00;;;;;;6070045;23;20420;-78
2021/07/30 15:30:14;;;;;;;38.60;6.20;;;25.50;2.90;;;;;;6067544;23;20408;-79
2021/07/30 15:32:41;;;;;;;43.17;7.53;;;26.10;1.00;;;;;;6068283;23;20409;-79
2021/07/30 15:35:08;;;;;;;47.50;7.77;;;26.90;1.00;;;;;;6068422;23;20409;-82
2021/07/30 15:37:35;;;;;;;40.20;6.27;;;27.40;1.00;;;;;;6067782;23;20405;-77
2021/07/30 15:40:04;;;;;;;39.67;5.80;;;28.50;1.00;;;;;;6067828;23;20405;-77
2021/07/30 15:42:31;;;;;;;37.77;3.60;;;29.10;1.00;;;;;;6068173;23;20432;-80
2021/07/30 15:44:58;;;;;;;38.87;5.30;;;29.70;1.00;;;;;;6066655;23;20405;-82
2021/07/30 15:47:24;;;;;;;40.30;3.90;;;30.10;1.00;;;;;;6068258;23;20408;-79
2021/07/30 16:13:41;;;;;;;42.50;4.07;;;28.20;1.00;;;;;;5151278;27;20517;-82
2021/07/30 16:16:16;;;;;;;39.70;3.07;;;29.40;1.00;;;;;;5118275;27;20493;-82
2021/07/30 16:18:49;;;;;;;40.00;3.30;;;29.80;1.00;;;;;;5136875;27;20806;-83
2021/07/30 16:21:17;;;;;;;43.30;4.00;;;28.90;1.00;;;;;;5150066;27;20487;-82
2021/07/30 16:23:45;;;;;;;51.97;5.70;;;27.70;1.00;;;;;;5150040;27;20434;-80
2021/07/30 16:26:21;;;;;;;42.97;5.23;;;26.90;1.00;;;;;;5151351;27;20473;-82
2021/07/30 16:28:53;;;;;;;42.23;3.83;;;26.80;1.00;;;;;;5151175;27;20511;-83
2021/07/30 16:45:12;;;;;;;38.90;4.17;;;25.70;1.00;;;;;;4915308;29;20449;-84
2021/07/30 17:32:26;;;;;;;43.07;7.73;;;24.50;1.00;;;;;;1389351;22;20766;-80
2021/07/30 17:34:53;;;;;;;39.80;6.87;;;24.20;1.00;;;;;;5014946;28;20556;-80
2021/07/30 17:39:56;;;;;;;36.17;3.00;;;23.60;1.20;;;;;;4982995;23;20881;-79
2021/07/30 17:42:23;;;;;;;37.47;5.23;;;23.40;1.60;;;;;;4968159;28;20486;-79
2021/07/30 17:44:54;;;;;;;37.20;3.80;;;23.30;2.80;;;;;;4974468;28;20467;-82
2021/07/30 17:47:29;;;;;;;34.30;3.00;;;23.10;1.00;;;;;;4974216;28;20984;-81
2021/07/30 17:49:59;;;;;;;35.87;3.40;;;23.00;1.00;;;;;;4974586;28;20454;-83
2021/07/30 17:52:28;;;;;;;38.10;2.90;;;23.00;1.00;;;;;;4974920;28;20898;-82
2021/07/30 17:54:55;;;;;;;34.97;3.23;;;22.90;1.00;;;;;;4940382;28;20494;-81
2021/07/30 17:57:23;;;;;;;33.20;2.40;;;22.90;1.00;;;;;;4974641;28;20545;-80
2021/07/30 17:59:52;;;;;;;34.90;4.10;;;22.80;1.10;;;;;;4974049;28;20509;-82
2021/07/30 18:02:40;;;;;;;33.23;3.10;;;22.70;2.00;;;;;;4974120;28;20487;-81
2021/07/30 18:05:12;;;;;;;45.77;9.70;;;22.60;1.90;;;;;;4963367;28;20455;-82
2021/07/30 18:07:39;;;;;;;39.73;10.03;;;22.10;10.70;;;;;;4939350;28;20554;-81
